Time;durP1;ratioP1;P1;durP2;ratioP2;P2;SDS_P1;SDS_P2;PMS_P1;PMS_P2;Temp;Humidity;BMP_temperature;BMP_pressure;BME280_temperature;BME280_humidity;BME280_pressure;Samples;Min_cycle;Max_cycle;Signal;HPM_P1;HPM_P2
2022/02/16 00:00:03;;;;;;;4.27;1.77;;;;;;;-0.38;73.96;100007.69;1799327;77;21058;-50
2022/02/16 00:02:32;;;;;;;5.50;2.03;;;;;;;-0.41;74.01;100010.31;1799985;77;20928;-51
2022/02/16 00:04:58;;;;;;;4.03;1.90;;;;;;;-0.44;74.06;99996.67;1803429;77;22240;-51
2022/02/16 00:07:26;;;;;;;8.00;1.90;;;;;;;-0.45;74.18;100001.52;1803211;77;21088;-51
2022/02/16 00:09:53;;;;;;;7.50;2.43;;;;;;;-0.47;74.29;99995.34;1803694;77;21059;-52
2022/02/16 00:12:19;;;;;;;6.10;1.80;;;;;;;-0.46;74.27;99994.91;1805356;77;21018;-51
2022/02/16 00:14:46;;;;;;;5.47;1.80;;;;;;;-0.49;74.35;99989.60;1799881;77;21096;-50
2022/02/16 00:17:12;;;;;;;5.23;2.43;;;;;;;-0.51;74.39;99989.59;1801275;77;22258;-51
2022/02/16 00:19:39;;;;;;;4.57;1.97;;;;;;;-0.52;74.45;99994.48;1803658;77;21441;-51
2022/02/16 00:22:05;;;;;;;5.57;2.57;;;;;;;-0.53;74.55;99982.57;1801901;77;21649;-50
2022/02/16 00:24:31;;;;;;;3.43;1.87;;;;;;;-0.55;74.62;99981.24;1803590;77;21673;-52
2022/02/16 00:26:58;;;;;;;6.07;2.30;;;;;;;-0.56;74.73;99975.51;1801359;77;21089;-52
2022/02/16 00:29:25;;;;;;;6.67;1.73;;;;;;;-0.56;74.78;99965.38;1804629;77;21072;-51
2022/02/16 00:31:51;;;;;;;5.03;2.17;;;;;;;-0.57;74.81;99966.25;1805654;77;21097;-52
2022/02/16 00:34:17;;;;;;;5.83;1.77;;;;;;;-0.57;74.76;99964.93;1802554;77;21107;-50
2022/02/16 00:36:44;;;;;;;4.97;1.77;;;;;;;-0.62;74.78;99968.02;1802305;77;21090;-51
2022/02/16 00:39:10;;;;;;;2.23;1.57;;;;;;;-0.64;74.83;99969.34;1803374;77;21065;-49
2022/02/16 00:41:38;;;;;;;5.93;2.60;;;;;;;-0.67;74.89;99961.40;1761796;79;21277;-50
2022/02/16 00:44:05;;;;;;;4.17;2.13;;;;;;;-0.67;74.94;99957.88;1736518;80;21531;-50
2022/02/16 00:46:32;;;;;;;6.30;3.20;;;;;;;-0.69;75.02;99953.94;1736864;82;21022;-50
2022/02/16 00:48:58;;;;;;;6.97;4.00;;;;;;;-0.69;75.05;99960.98;1741997;80;21133;-51
2022/02/16 00:51:24;;;;;;;5.83;3.43;;;;;;;-0.69;74.97;99959.66;1740926;80;21073;-50
2022/02/16 00:53:51;;;;;;;7.20;3.37;;;;;;;-0.71;74.98;99961.41;1748427;80;22963;-50
2022/02/16 00:56:20;;;;;;;4.87;2.07;;;;;;;-0.73;75.07;99963.17;1745260;80;20991;-49
2022/02/16 00:58:46;;;;;;;2.97;1.80;;;;;;;-0.76;75.14;99963.59;1739348;80;20997;-50
2022/02/16 01:01:12;;;;;;;6.40;1.73;;;;;;;-0.79;75.17;99959.66;1745131;80;21010;-50
2022/02/16 01:03:39;;;;;;;7.27;2.13;;;;;;;-0.81;75.28;99960.08;1740074;80;21325;-50
2022/02/16 01:06:05;;;;;;;3.93;2.03;;;;;;;-0.80;75.34;99960.53;1735429;81;21347;-50
2022/02/16 01:08:32;;;;;;;3.50;2.07;;;;;;;-0.79;75.43;99952.16;1737715;81;21746;-51
2022/02/16 01:11:00;;;;;;;4.00;2.40;;;;;;;-0.79;75.53;99945.55;1735489;81;20916;-50
2022/02/16 01:13:26;;;;;;;4.10;1.73;;;;;;;-0.79;75.69;99945.55;1737250;82;20966;-52
2022/02/16 01:15:53;;;;;;;6.47;2.07;;;;;;;-0.78;75.78;99945.56;1737349;80;21592;-49
2022/02/16 01:18:20;;;;;;;7.20;2.33;;;;;;;-0.74;75.83;99948.18;1716007;80;21548;-50
2022/02/16 01:20:48;;;;;;;5.77;1.77;;;;;;;-0.72;75.86;99945.99;1736759;80;21022;-51
2022/02/16 01:23:15;;;;;;;3.70;2.20;;;;;;;-0.68;75.91;99947.73;1740814;80;21314;-50
2022/02/16 01:25:43;;;;;;;4.33;2.20;;;;;;;-0.64;75.91;99948.63;1725230;80;21019;-50
2022/02/16 01:28:12;;;;;;;4.40;2.67;;;;;;;-0.60;76.04;99942.48;1734863;80;20915;-51
2022/02/16 01:30:41;;;;;;;7.03;3.17;;;;;;;-0.55;76.04;99938.05;1741984;80;21046;-50
2022/02/16 01:33:09;;;;;;;7.43;2.23;;;;;;;-0.51;76.13;99933.22;1733996;80;21395;-50
2022/02/16 01:35:37;;;;;;;5.10;2.40;;;;;;;-0.45;76.18;99925.27;1732977;80;21415;-50
2022/02/16 01:38:04;;;;;;;6.43;3.10;;;;;;;-0.42;76.19;99918.63;1734644;80;20962;-51
2022/02/16 01:40:30;;;;;;;5.57;2.43;;;;;;;-0.40;76.18;99912.47;1739138;80;20938;-51
2022/02/16 01:42:57;;;;;;;5.07;1.70;;;;;;;-0.39;76.16;99908.94;1737273;80;21501;-51
2022/02/16 01:45:32;;;;;;;4.42;2.12;;;;;;;-0.36;76.25;99908.51;1734434;80;22274;-51
2022/02/16 01:47:58;;;;;;;5.33;1.97;;;;;;;-0.35;76.28;99905.87;1741484;80;21138;-51
2022/02/16 01:50:25;;;;;;;5.23;2.23;;;;;;;-0.31;76.32;99908.92;1735272;80;21049;-51
2022/02/16 01:52:51;;;;;;;7.63;2.37;;;;;;;-0.29;76.35;99907.16;1745039;80;21078;-51
2022/02/16 01:55:18;;;;;;;5.80;2.57;;;;;;;-0.27;76.37;99902.76;1740630;80;21731;-50
2022/02/16 01:57:45;;;;;;;5.57;1.80;;;;;;;-0.24;76.37;99908.02;1714704;82;21088;-49
2022/02/16 02:00:13;;;;;;;7.40;2.70;;;;;;;-0.20;76.40;99906.27;1733978;80;21095;-50
2022/02/16 02:02:48;;;;;;;;;;;;;;;-0.18;76.34;99907.15;1735822;80;21041;-50
2022/02/16 02:05:16;;;;;;;14.73;7.20;;;;;;;-0.16;76.38;99910.64;1734768;80;20365;-51
2022/02/16 02:07:42;;;;;;;15.53;7.90;;;;;;;-0.15;76.35;99909.32;1744119;80;22591;-51
2022/02/16 02:10:11;;;;;;;19.50;9.67;;;;;;;-0.14;76.31;99894.33;1744689;80;21986;-51
2022/02/16 02:12:53;;;;;;;18.00;9.10;;;;;;;-0.11;76.21;99895.66;1797424;77;21050;-51
2022/02/16 02:15:23;;;;;;;17.27;7.97;;;;;;;-0.12;76.17;99897.42;1801232;77;21062;-51
2022/02/16 02:17:53;;;;;;;15.77;7.53;;;;;;;-0.11;76.13;99901.83;1784778;77;21045;-51
2022/02/16 02:20:27;;;;;;;13.93;4.93;;;;;;;-0.09;76.09;99896.09;1802430;77;21103;-51
2022/02/16 02:22:54;;;;;;;11.20;5.08;;;;;;;-0.09;76.08;99905.80;1759274;79;21093;-50
2022/02/16 02:25:21;;;;;;;11.00;4.87;;;;;;;-0.08;76.00;99900.48;1801116;77;21042;-51
2022/02/16 02:27:48;;;;;;;8.43;4.33;;;;;;;-0.08;75.90;99897.83;1770391;77;21022;-50
2022/02/16 02:30:15;;;;;;;7.23;4.20;;;;;;;-0.09;75.84;99897.42;1799405;77;21057;-50
2022/02/16 02:32:44;;;;;;;10.67;5.50;;;;;;;-0.08;75.80;99881.07;1798103;77;21201;-50
2022/02/16 02:35:11;;;;;;;9.23;5.23;;;;;;;-0.09;75.76;99885.95;1800457;77;21757;-52
2022/02/16 02:37:39;;;;;;;16.93;9.50;;;;;;;-0.09;75.76;99886.84;1798488;77;21073;-52
2022/02/16 02:40:09;;;;;;;17.40;8.70;;;;;;;-0.08;75.70;99888.56;1801925;77;20896;-51
2022/02/16 02:42:39;;;;;;;18.37;8.13;;;;;;;-0.09;75.67;99888.16;1755329;77;21515;-52
2022/02/16 02:45:08;;;;;;;15.13;6.73;;;;;;;-0.09;75.63;99883.31;1797768;77;21130;-51
2022/02/16 02:47:35;;;;;;;18.37;9.60;;;;;;;-0.09;75.57;99884.63;1773640;77;21050;-51
2022/02/16 02:50:04;;;;;;;17.30;8.97;;;;;;;-0.09;75.55;99883.31;1798811;77;21022;-51
2022/02/16 02:52:31;;;;;;;20.00;8.27;;;;;;;-0.10;75.55;99883.75;1801348;77;21544;-52
2022/02/16 02:54:59;;;;;;;14.57;7.33;;;;;;;-0.10;75.61;99887.72;1801454;77;21077;-52
2022/02/16 02:57:25;;;;;;;13.47;6.03;;;;;;;-0.08;75.63;99883.72;1796584;77;21144;-52
2022/02/16 02:59:52;;;;;;;11.53;5.93;;;;;;;-0.08;75.67;99887.25;1798722;77;21030;-51
2022/02/16 03:02:18;;;;;;;10.07;4.83;;;;;;;-0.06;75.74;99890.78;1798572;77;21074;-51
2022/02/16 03:04:45;;;;;;;8.17;4.20;;;;;;;-0.05;75.68;99887.25;1801890;77;20871;-51
2022/02/16 03:07:12;;;;;;;16.33;6.40;;;;;;;-0.05;75.73;99893.86;1799428;77;21641;-51
2022/02/16 03:09:40;;;;;;;12.47;5.40;;;;;;;-0.02;75.80;99889.89;1796731;77;21039;-52
2022/02/16 03:12:07;;;;;;;9.57;5.13;;;;;;;-0.01;75.86;99882.40;1797094;77;21079;-52
2022/02/16 03:14:35;;;;;;;10.07;4.83;;;;;;;0.02;75.90;99878.84;1800047;77;21031;-52
2022/02/16 03:17:03;;;;;;;11.60;5.20;;;;;;;0.03;75.97;99882.36;1795971;77;21078;-52
2022/02/16 03:19:30;;;;;;;12.33;6.37;;;;;;;0.04;76.02;99883.69;1799743;77;21029;-52
2022/02/16 03:21:57;;;;;;;9.70;5.47;;;;;;;0.05;76.06;99883.25;1799233;77;21051;-52
2022/02/16 03:24:23;;;;;;;9.13;4.70;;;;;;;0.08;76.14;99880.60;1801008;77;21057;-52
2022/02/16 03:26:50;;;;;;;6.93;4.43;;;;;;;0.10;76.16;99873.51;1797925;77;21025;-52
2022/02/16 03:29:18;;;;;;;11.53;4.50;;;;;;;0.11;76.25;99874.83;1797990;77;21085;-52
2022/02/16 03:31:47;;;;;;;8.47;4.50;;;;;;;0.14;76.25;99877.48;1796340;77;21102;-52
2022/02/16 03:34:14;;;;;;;7.47;3.90;;;;;;;0.16;76.35;99870.86;1799202;77;21757;-52
2022/02/16 03:36:42;;;;;;;7.07;3.97;;;;;;;0.19;76.42;99866.85;1797162;77;21027;-52
2022/02/16 03:39:09;;;;;;;9.00;5.23;;;;;;;0.21;76.48;99859.34;1766931;77;21096;-52
2022/02/16 03:41:36;;;;;;;8.27;4.57;;;;;;;0.24;76.56;99859.78;1795742;77;21164;-51
2022/02/16 03:44:04;;;;;;;9.27;4.83;;;;;;;0.28;76.64;99854.89;1797316;77;21108;-52
2022/02/16 03:46:34;;;;;;;8.17;5.17;;;;;;;0.28;76.72;99845.19;1800720;77;20954;-51
2022/02/16 03:49:00;;;;;;;8.23;4.73;;;;;;;0.31;76.80;99847.83;1798630;77;21148;-51
2022/02/16 03:51:26;;;;;;;11.10;5.43;;;;;;;0.33;76.89;99850.47;1799821;76;21294;-52
2022/02/16 03:53:55;;;;;;;12.53;4.57;;;;;;;0.34;76.98;99845.14;1801785;77;20966;-52
2022/02/16 03:56:21;;;;;;;8.57;3.83;;;;;;;0.37;77.11;99845.58;1756387;79;21080;-52
2022/02/16 03:58:48;;;;;;;4.73;3.33;;;;;;;0.39;77.10;99851.75;1795673;77;21129;-51
2022/02/16 04:01:15;;;;;;;7.20;4.53;;;;;;;0.38;77.11;99848.22;1794997;77;21172;-52
2022/02/16 04:03:42;;;;;;;13.50;5.53;;;;;;;0.39;77.19;99846.45;1797360;77;21057;-51
2022/02/16 04:06:08;;;;;;;10.90;4.53;;;;;;;0.41;77.26;99850.42;1799422;77;21068;-52
2022/02/16 04:08:35;;;;;;;12.70;6.67;;;;;;;0.44;77.30;99849.06;1800944;77;21070;-51
2022/02/16 04:11:01;;;;;;;8.70;5.43;;;;;;;0.44;77.40;99843.33;1802029;77;21472;-52
2022/02/16 04:13:28;;;;;;;6.87;4.07;;;;;;;0.46;77.48;99836.70;1806386;77;22245;-51
2022/02/16 04:15:55;;;;;;;10.47;4.77;;;;;;;0.47;77.64;99834.49;1805988;77;20966;-51
2022/02/16 04:18:21;;;;;;;11.00;5.47;;;;;;;0.48;77.70;99833.16;1806571;77;20969;-52
2022/02/16 04:20:49;;;;;;;9.13;4.93;;;;;;;0.50;77.79;99840.66;1779814;77;21010;-52
2022/02/16 04:23:17;;;;;;;9.10;4.57;;;;;;;0.51;77.92;99830.95;1802025;78;21370;-52
2022/02/16 04:25:43;;;;;;;11.70;4.83;;;;;;;0.53;78.03;99827.82;1808836;77;20911;-52
2022/02/16 04:28:10;;;;;;;7.87;4.83;;;;;;;0.54;78.14;99834.44;1807292;77;20881;-52
2022/02/16 04:30:37;;;;;;;9.63;5.10;;;;;;;0.57;78.20;99836.20;1803885;77;20861;-52
2022/02/16 04:33:04;;;;;;;16.73;7.30;;;;;;;0.59;78.26;99833.98;1807647;77;20974;-52
2022/02/16 04:35:31;;;;;;;10.77;6.87;;;;;;;0.60;78.39;99825.56;1808675;77;21058;-52
2022/02/16 04:37:57;;;;;;;11.33;6.20;;;;;;;0.61;78.46;99830.85;1780230;77;21434;-52
2022/02/16 04:40:26;;;;;;;8.47;6.03;;;;;;;0.63;78.50;99831.73;1802571;77;20907;-52
2022/02/16 04:42:53;;;;;;;12.80;6.37;;;;;;;0.65;78.56;99833.05;1779991;78;21001;-52
2022/02/16 04:45:20;;;;;;;12.57;5.93;;;;;;;0.66;78.60;99827.74;1807592;77;20966;-52
2022/02/16 04:47:46;;;;;;;8.17;5.23;;;;;;;0.67;78.69;99823.33;1766998;79;21097;-51
2022/02/16 04:50:13;;;;;;;12.13;6.67;;;;;;;0.69;78.78;99823.73;1765018;79;21069;-52
2022/02/16 04:52:40;;;;;;;17.07;10.13;;;;;;;0.70;78.83;99827.25;1739381;80;21065;-52
2022/02/16 04:55:10;;;;;;;14.37;8.10;;;;;;;0.72;78.86;99832.11;1733189;80;21058;-52
2022/02/16 04:57:37;;;;;;;10.07;6.73;;;;;;;0.75;78.90;99828.13;1744283;80;20934;-52
2022/02/16 05:00:06;;;;;;;14.37;8.10;;;;;;;0.79;78.95;99828.95;1743090;80;21119;-52
2022/02/16 05:02:35;;;;;;;17.00;8.97;;;;;;;0.82;78.98;99826.30;1741936;80;21120;-52
2022/02/16 05:05:01;;;;;;;17.20;6.80;;;;;;;0.85;79.02;99828.94;1742019;80;21072;-51
2022/02/16 05:07:29;;;;;;;17.77;6.87;;;;;;;0.87;79.07;99825.80;1707540;80;21065;-52
2022/02/16 05:09:55;;;;;;;12.37;6.03;;;;;;;0.89;79.05;99838.60;1710580;80;21487;-52
2022/02/16 05:12:21;;;;;;;11.83;5.97;;;;;;;0.89;79.08;99843.91;1735213;80;22664;-52
2022/02/16 05:14:49;;;;;;;12.27;6.17;;;;;;;0.88;79.14;99841.70;1737081;80;21321;-52
2022/02/16 05:19:05;;;;;;;11.23;5.83;;;;;;;0.96;79.22;99840.30;1761454;79;27680;-53
2022/02/16 05:21:34;;;;;;;9.77;4.70;;;;;;;0.94;79.22;99844.73;1731450;81;21071;-52
2022/02/16 05:24:03;;;;;;;10.07;4.97;;;;;;;0.97;79.32;99838.09;1732141;81;21167;-53
2022/02/16 05:26:29;;;;;;;12.60;6.17;;;;;;;1.00;79.33;99844.70;1732033;81;21037;-52
2022/02/16 05:28:56;;;;;;;11.83;6.37;;;;;;;1.02;79.38;99842.45;1728674;81;21306;-53
2022/02/16 05:31:23;;;;;;;12.40;6.70;;;;;;;1.04;79.40;99846.42;1740251;81;21606;-52
2022/02/16 05:33:49;;;;;;;9.60;5.57;;;;;;;1.04;79.41;99847.30;1732534;81;21610;-51
2022/02/16 05:36:17;;;;;;;10.30;5.83;;;;;;;1.07;79.47;99843.76;1728855;81;21278;-53
2022/02/16 05:38:45;;;;;;;10.67;5.83;;;;;;;1.10;79.48;99849.92;1725936;80;20985;-52
2022/02/16 05:41:11;;;;;;;15.23;8.13;;;;;;;1.13;79.46;99847.67;1731880;81;21073;-53
2022/02/16 05:43:38;;;;;;;18.13;10.17;;;;;;;1.13;79.40;99845.90;1729885;81;21083;-53
2022/02/16 05:46:06;;;;;;;16.80;13.50;;;;;;;1.16;79.44;99851.63;1732853;81;21101;-53
2022/02/16 05:48:34;;;;;;;21.40;14.27;;;;;;;1.17;79.50;99850.74;1733748;81;21697;-52
2022/02/16 05:51:01;;;;;;;13.17;6.77;;;;;;;1.17;79.54;99849.42;1734114;81;21061;-52
2022/02/16 05:53:28;;;;;;;8.80;5.23;;;;;;;1.20;79.63;99842.73;1732362;81;21073;-52
2022/02/16 05:55:54;;;;;;;12.60;5.80;;;;;;;1.24;79.64;99840.51;1726643;81;21168;-52
2022/02/16 05:58:21;;;;;;;11.67;5.90;;;;;;;1.26;79.60;99840.05;1712914;82;21245;-52
2022/02/16 06:00:47;;;;;;;12.00;5.70;;;;;;;1.29;79.55;99833.82;1709658;82;22619;-53
2022/02/16 06:03:15;;;;;;;12.90;6.93;;;;;;;1.29;79.53;99830.72;1707712;82;21095;-52
2022/02/16 06:05:43;;;;;;;12.37;5.80;;;;;;;1.29;79.52;99840.00;1708719;82;21531;-52
2022/02/16 06:08:10;;;;;;;10.63;4.97;;;;;;;1.30;79.51;99839.11;1705266;82;21050;-52
2022/02/16 06:10:38;;;;;;;11.57;5.87;;;;;;;1.31;79.54;99827.62;1707909;82;21351;-53
2022/02/16 06:13:05;;;;;;;13.63;5.60;;;;;;;1.33;79.52;99828.94;1709181;82;22951;-53
2022/02/16 06:15:31;;;;;;;11.43;6.30;;;;;;;1.33;79.57;99832.47;1711678;82;21515;-53
2022/02/16 06:17:58;;;;;;;8.60;4.90;;;;;;;1.33;79.55;99826.28;1712398;81;21112;-53
2022/02/16 06:20:25;;;;;;;15.83;7.27;;;;;;;1.34;79.56;99822.30;1719974;81;21029;-53
2022/02/16 06:22:56;;;;;;;12.77;5.90;;;;;;;1.35;79.55;99825.83;1717380;81;21101;-52
2022/02/16 06:25:21;;;;;;;10.43;5.43;;;;;;;1.37;79.57;99819.59;1722116;81;21164;-52
2022/02/16 06:27:49;;;;;;;11.27;4.57;;;;;;;1.38;79.56;99816.05;1721935;81;20930;-53
2022/02/16 06:30:17;;;;;;;10.50;4.93;;;;;;;1.38;79.55;99805.88;1724604;81;21428;-53
2022/02/16 06:32:45;;;;;;;10.17;5.10;;;;;;;1.37;79.58;99808.98;1722384;81;21037;-53
2022/02/16 06:35:12;;;;;;;14.07;6.97;;;;;;;1.39;79.60;99804.99;1722569;81;21038;-53
2022/02/16 06:37:41;;;;;;;12.80;6.57;;;;;;;1.41;79.62;99804.09;1718813;81;21143;-53
2022/02/16 06:40:12;;;;;;;11.17;5.43;;;;;;;1.42;79.60;99804.52;1718471;81;21008;-54
2022/02/16 06:42:40;;;;;;;10.70;5.73;;;;;;;1.44;79.57;99803.19;1719647;81;21020;-53
2022/02/16 06:45:09;;;;;;;11.37;5.80;;;;;;;1.45;79.52;99799.61;1716398;81;21100;-53
2022/02/16 06:47:37;;;;;;;9.90;5.07;;;;;;;1.45;79.52;99797.84;1723054;81;20914;-54
2022/02/16 06:50:05;;;;;;;16.90;5.73;;;;;;;1.45;79.52;99799.61;1718841;81;21145;-54
2022/02/16 06:52:31;;;;;;;9.30;5.40;;;;;;;1.43;79.47;99801.43;1720543;81;20971;-53
2022/02/16 06:54:57;;;;;;;11.63;6.03;;;;;;;1.41;79.47;99807.19;1714935;81;21116;-53
2022/02/16 06:57:24;;;;;;;11.53;6.60;;;;;;;1.39;79.47;99808.97;1723280;81;20918;-53
2022/02/16 06:59:52;;;;;;;19.97;10.57;;;;;;;1.38;79.44;99805.88;1688945;83;20959;-53
2022/02/16 07:02:18;;;;;;;18.70;8.23;;;;;;;1.37;79.44;99808.98;1700587;82;21132;-53
2022/02/16 07:04:45;;;;;;;14.10;7.20;;;;;;;1.36;79.48;99803.72;1694183;83;21061;-53
2022/02/16 07:07:12;;;;;;;13.50;7.70;;;;;;;1.35;79.52;99801.95;1695500;83;21050;-53
2022/02/16 07:09:38;;;;;;;15.17;7.97;;;;;;;1.35;79.53;99797.53;1695865;82;21074;-54
2022/02/16 07:12:08;;;;;;;11.40;6.90;;;;;;;1.34;79.55;99787.81;1699358;83;21038;-54
2022/02/16 07:14:36;;;;;;;15.63;8.20;;;;;;;1.34;79.58;99786.49;1661707;83;21921;-54
2022/02/16 07:17:03;;;;;;;16.43;8.23;;;;;;;1.35;79.60;99783.39;1695462;83;21267;-54
2022/02/16 07:19:30;;;;;;;17.80;7.17;;;;;;;1.37;79.57;99788.21;1693324;83;20955;-54
2022/02/16 07:22:10;;;;;;;11.50;5.83;;;;;;;1.40;79.58;99790.39;1690040;83;20964;-54
2022/02/16 07:24:38;;;;;;;12.70;7.13;;;;;;;1.44;79.59;99793.46;1691375;83;20987;-54
2022/02/16 07:27:04;;;;;;;13.47;6.73;;;;;;;1.45;79.60;99784.58;1694575;83;21106;-54
2022/02/16 07:29:31;;;;;;;13.53;8.20;;;;;;;1.47;79.52;99783.24;1694199;83;20943;-54
2022/02/16 07:31:58;;;;;;;13.60;7.30;;;;;;;1.46;79.49;99781.03;1701053;82;20971;-54
2022/02/16 07:34:26;;;;;;;13.30;8.00;;;;;;;1.46;79.50;99774.41;1700659;82;20923;-55
2022/02/16 07:36:53;;;;;;;12.50;7.43;;;;;;;1.48;79.46;99774.39;1699647;82;21435;-54
2022/02/16 07:39:20;;;;;;;15.00;7.03;;;;;;;1.50;79.45;99772.61;1699868;82;21038;-54
2022/02/16 07:41:47;;;;;;;14.97;7.00;;;;;;;1.51;79.50;99771.27;1700052;82;20896;-55
2022/02/16 07:44:18;;;;;;;13.70;7.67;;;;;;;1.53;79.47;99769.05;1699626;82;20946;-55
2022/02/16 07:46:50;;;;;;;14.40;7.23;;;;;;;1.53;79.52;99762.82;1699561;82;20931;-55
2022/02/16 07:49:16;;;;;;;15.70;8.57;;;;;;;1.55;79.52;99763.25;1702312;82;20961;-55
2022/02/16 07:51:50;;;;;;;18.27;8.28;;;;;;;1.55;79.52;99766.78;1685775;82;21104;-55
2022/02/16 07:54:18;;;;;;;16.27;8.83;;;;;;;1.58;79.55;99770.74;1698106;82;20987;-55
2022/02/16 07:56:47;;;;;;;15.57;10.03;;;;;;;1.58;79.48;99762.78;1700827;82;20955;-55
2022/02/16 07:59:13;;;;;;;17.40;9.67;;;;;;;1.61;79.38;99753.92;1698129;82;21301;-55
2022/02/16 08:01:40;;;;;;;16.13;8.90;;;;;;;1.61;79.31;99756.58;1676311;82;21434;-56
2022/02/16 08:04:18;;;;;;;18.47;10.47;;;;;;;1.61;79.31;99757.90;1701272;82;21111;-56
2022/02/16 08:06:49;;;;;;;16.97;9.20;;;;;;;1.62;79.36;99760.95;1694803;82;21097;-55
2022/02/16 08:09:16;;;;;;;15.83;8.07;;;;;;;1.64;79.35;99756.52;1689225;83;21030;-56
2022/02/16 08:11:45;;;;;;;19.07;10.87;;;;;;;1.67;79.36;99751.18;1690199;83;20923;-56
2022/02/16 08:14:13;;;;;;;21.00;11.80;;;;;;;1.69;79.22;99746.30;1651436;85;21042;-56
2022/02/16 08:16:47;;;;;;;19.83;11.17;;;;;;;1.72;79.18;99743.58;1694288;82;21123;-55
2022/02/16 08:19:14;;;;;;;20.60;12.27;;;;;;;1.75;79.10;99738.25;1696286;82;21050;-55
2022/02/16 08:21:42;;;;;;;24.30;12.23;;;;;;;1.79;79.05;99744.38;1698292;82;21110;-55
2022/02/16 08:24:11;;;;;;;16.33;10.87;;;;;;;1.84;79.04;99741.23;1695697;82;21496;-56
2022/02/16 08:26:38;;;;;;;23.37;12.40;;;;;;;1.90;79.00;99741.14;1697290;82;21085;-56
2022/02/16 08:29:06;;;;;;;24.00;13.33;;;;;;;1.97;78.86;99738.82;1653478;84;21030;-56
2022/02/16 08:31:33;;;;;;;25.47;13.67;;;;;;;2.01;78.75;99735.23;1653944;85;21102;-56
2022/02/16 08:34:08;;;;;;;24.67;13.22;;;;;;;2.05;78.65;99738.71;1694451;82;21526;-57
2022/02/16 08:36:37;;;;;;;26.10;14.30;;;;;;;2.09;78.53;99735.13;1697507;82;21112;-56
2022/02/16 08:39:04;;;;;;;21.17;13.50;;;;;;;2.09;78.46;99726.72;1685787;83;21332;-56
2022/02/16 08:41:31;;;;;;;18.33;10.70;;;;;;;2.11;78.27;99734.22;1651641;85;22205;-57
2022/02/16 08:43:57;;;;;;;16.93;10.20;;;;;;;2.11;78.14;99732.01;1651055;84;21573;-55
2022/02/16 08:46:23;;;;;;;18.67;10.80;;;;;;;2.11;78.04;99723.59;1694165;82;21038;-57
2022/02/16 08:48:50;;;;;;;25.47;12.83;;;;;;;2.11;77.99;99726.25;1698217;82;21031;-57
2022/02/16 08:51:16;;;;;;;22.10;12.67;;;;;;;2.12;77.95;99729.34;1695250;82;21062;-57
2022/02/16 08:53:42;;;;;;;21.33;12.33;;;;;;;2.12;77.88;99725.35;1699336;82;21129;-57
2022/02/16 08:56:09;;;;;;;20.70;12.90;;;;;;;2.13;77.82;99724.42;1653810;85;21099;-57
2022/02/16 08:58:35;;;;;;;23.47;13.67;;;;;;;2.12;77.74;99724.03;1699339;82;21135;-57
2022/02/16 09:01:01;;;;;;;23.67;13.43;;;;;;;2.13;77.72;99739.48;1694455;82;21027;-57
2022/02/16 09:03:29;;;;;;;19.93;12.10;;;;;;;2.15;77.74;99732.38;1697507;82;21097;-56
2022/02/16 09:05:56;;;;;;;21.63;11.87;;;;;;;2.18;77.63;99732.34;1695376;82;21484;-57
2022/02/16 09:08:23;;;;;;;19.50;12.20;;;;;;;2.17;77.56;99727.48;1694762;82;21422;-56
2022/02/16 09:10:49;;;;;;;16.67;11.70;;;;;;;2.18;77.51;99728.36;1694354;82;21865;-57
2022/02/16 09:13:15;;;;;;;17.30;12.50;;;;;;;2.18;77.50;99729.23;1691989;82;21501;-57
2022/02/16 09:15:42;;;;;;;19.73;12.20;;;;;;;2.18;77.46;99720.39;1696837;82;21599;-56
2022/02/16 09:18:09;;;;;;;15.30;10.47;;;;;;;2.17;77.42;99722.17;1695537;82;21130;-57
2022/02/16 09:20:35;;;;;;;19.03;10.80;;;;;;;2.17;77.42;99716.86;1715987;81;21092;-56
2022/02/16 09:23:02;;;;;;;19.70;11.50;;;;;;;2.15;77.41;99719.98;1718523;81;20918;-56
2022/02/16 09:25:28;;;;;;;18.27;10.77;;;;;;;2.14;77.52;99714.23;1712947;81;21057;-57
2022/02/16 09:27:55;;;;;;;19.23;11.67;;;;;;;2.16;77.59;99712.89;1715115;81;21140;-57
2022/02/16 09:30:21;;;;;;;16.60;11.03;;;;;;;2.18;77.62;99710.65;1715524;81;22729;-56
2022/02/16 09:32:48;;;;;;;20.07;12.23;;;;;;;2.19;77.65;99705.77;1714609;81;21544;-57
2022/02/16 09:35:16;;;;;;;25.37;13.63;;;;;;;2.21;77.59;99705.75;1711643;81;21305;-56
2022/02/16 09:37:43;;;;;;;22.43;11.70;;;;;;;2.20;77.54;99699.56;1711513;81;21694;-56
2022/02/16 09:40:11;;;;;;;16.67;11.97;;;;;;;2.21;77.55;99694.64;1715512;81;21313;-56
2022/02/16 09:42:39;;;;;;;23.33;12.90;;;;;;;2.23;77.55;99693.30;1714612;81;21104;-56
2022/02/16 09:45:07;;;;;;;19.27;12.47;;;;;;;2.25;77.59;99693.72;1713054;81;21224;-56
2022/02/16 09:47:34;;;;;;;24.37;13.73;;;;;;;2.28;77.62;99692.34;1716349;81;21084;-56
2022/02/16 09:50:03;;;;;;;22.57;13.53;;;;;;;2.31;77.60;99701.14;1719703;81;20904;-56
2022/02/16 09:52:30;;;;;;;24.37;13.60;;;;;;;2.31;77.56;99696.72;1715736;81;21049;-56
2022/02/16 09:54:56;;;;;;;27.23;14.47;;;;;;;2.34;77.54;99691.81;1683235;84;21147;-57
2022/02/16 09:57:22;;;;;;;23.03;13.43;;;;;;;2.35;77.44;99674.98;1694351;83;21105;-56
2022/02/16 09:59:48;;;;;;;18.77;12.43;;;;;;;2.35;77.38;99680.29;1692387;83;21113;-56
2022/02/16 10:02:16;;;;;;;17.23;12.70;;;;;;;2.37;77.34;99671.85;1686643;84;21058;-57
2022/02/16 10:04:58;;;;;;;20.57;12.87;;;;;;;2.37;77.22;99671.41;1689962;83;21132;-57
2022/02/16 10:07:30;;;;;;;18.63;12.57;;;;;;;2.33;77.17;99665.70;1697187;83;20943;-57
2022/02/16 10:10:18;;;;;;;19.20;10.50;;;;;;;2.31;77.23;99668.83;1692887;83;20939;-56
2022/02/16 10:12:48;;;;;;;18.27;10.50;;;;;;;2.28;77.27;99659.15;1713280;81;21108;-57
2022/02/16 10:15:25;;;;;;;17.13;11.63;;;;;;;2.26;77.26;99655.63;1715665;81;21524;-56
2022/02/16 10:18:07;;;;;;;13.50;10.20;;;;;;;2.28;77.28;99650.30;1715394;81;21180;-56
2022/02/16 10:20:33;;;;;;;19.03;10.80;;;;;;;2.28;77.28;99649.86;1709140;81;21498;-56
2022/02/16 10:22:59;;;;;;;18.13;12.10;;;;;;;2.29;77.32;99641.44;1715787;81;21037;-57
2022/02/16 10:25:32;;;;;;;17.70;11.37;;;;;;;2.31;77.40;99639.61;1714540;81;21511;-56
2022/02/16 10:28:06;;;;;;;18.07;11.93;;;;;;;2.34;77.37;99644.00;1713366;81;21637;-57
2022/02/16 10:30:33;;;;;;;20.10;12.15;;;;;;;2.35;77.35;99642.66;1715954;81;21498;-56
2022/02/16 10:33:27;;;;;;;17.80;12.57;;;;;;;2.38;77.31;99629.78;1718835;81;21527;-56
2022/02/16 10:36:05;;;;;;;18.33;12.50;;;;;;;2.39;77.26;99627.06;1693842;83;21148;-57
2022/02/16 10:38:54;;;;;;;20.00;12.30;;;;;;;2.38;77.20;99617.38;1715337;81;20918;-57
2022/02/16 10:41:24;;;;;;;24.33;14.77;;;;;;;2.39;77.23;99617.77;1703329;81;20922;-57
2022/02/16 10:43:51;;;;;;;19.50;12.53;;;;;;;2.41;77.30;99608.00;1719598;81;21433;-57
2022/02/16 10:46:24;;;;;;;20.27;12.77;;;;;;;2.44;77.33;99605.75;1713944;81;22107;-57
2022/02/16 10:49:13;;;;;;;23.92;14.63;;;;;;;2.46;77.34;99605.28;1719281;81;20922;-57
2022/02/16 10:51:41;;;;;;;21.07;13.53;;;;;;;2.49;77.35;99607.86;1721049;81;21405;-57
2022/02/16 10:54:17;;;;;;;26.17;17.47;;;;;;;2.50;77.36;99601.20;1713599;81;21095;-57
2022/02/16 10:56:46;;;;;;;22.67;14.70;;;;;;;2.51;77.32;99592.33;1718997;81;21393;-57
2022/02/16 10:59:12;;;;;;;21.77;14.03;;;;;;;2.53;77.29;99589.20;1718953;81;21177;-58
2022/02/16 11:01:39;;;;;;;25.27;14.80;;;;;;;2.55;77.34;99586.03;1718599;81;20994;-57
2022/02/16 11:04:07;;;;;;;22.27;14.13;;;;;;;2.57;77.30;99578.92;1720159;81;20918;-57
2022/02/16 11:06:38;;;;;;;23.90;16.37;;;;;;;2.60;77.34;99583.31;1717399;81;20914;-58
2022/02/16 11:09:06;;;;;;;24.07;15.10;;;;;;;2.61;77.36;99575.31;1719559;81;20981;-57
2022/02/16 11:11:32;;;;;;;23.70;14.47;;;;;;;2.65;77.29;99572.13;1717913;81;22221;-58
2022/02/16 11:14:03;;;;;;;28.10;16.50;;;;;;;2.67;77.27;99579.63;1715979;81;20969;-58
2022/02/16 11:16:30;;;;;;;24.40;14.10;;;;;;;2.70;77.21;99587.55;1691185;81;21064;-57
2022/02/16 11:19:00;;;;;;;24.10;15.60;;;;;;;2.73;77.16;99594.12;1715080;81;21061;-59
2022/02/16 11:21:26;;;;;;;29.10;16.93;;;;;;;2.75;77.03;99578.14;1714265;81;20914;-57
2022/02/16 11:23:56;;;;;;;25.20;16.10;;;;;;;2.74;76.92;99581.25;1719216;81;21408;-57
2022/02/16 11:26:41;;;;;;;24.37;15.90;;;;;;;2.74;76.93;99577.27;1716732;81;21052;-58
2022/02/16 11:29:33;;;;;;;22.95;14.33;;;;;;;2.75;76.92;99576.37;1710117;81;21157;-57
2022/02/16 11:32:22;;;;;;;25.70;15.10;;;;;;;2.75;76.85;99577.70;1702054;81;21091;-57
2022/02/16 11:35:26;;;;;;;25.23;15.90;;;;;;;2.75;76.84;99574.16;1713446;81;21361;-58
2022/02/16 11:38:10;;;;;;;24.60;15.53;;;;;;;2.76;76.89;99563.95;1717155;81;21168;-57